Погода Найранна неделю

Наджран, Саудовская Аравия

04 - 10 марта
  • 04марта
    Сегодня
    +15°
    +32°
    Ясно и безоблачно
    ВремяПогодаТемператураВлажностьДавлениеВетер, м/сВероятность осадков
    00:00Практически безоблачно+21°C61 %658 мм3.4 м/с2 %
    03:00Небольшая облачность+17°C75 %656 мм2.0 м/с2 %
    06:00Практически безоблачно+16°C82 %657 мм2.2 м/с2 %
    09:00Небольшая облачность+22°C53 %659 мм2.3 м/с2 %
    12:00Ясно и безоблачно+29°C20 %659 мм5.2 м/с2 %
    15:00Ясно и безоблачно+31°C20 %658 мм5.8 м/с6 %
    18:00Ясно и безоблачно+26°C38 %658 мм6.8 м/с3 %
    21:00Ясно и безоблачно+23°C46 %659 мм4.2 м/с2 %
  • 05марта
    Вторник
    +15°
    +33°
    Небольшая облачность
    ВремяПогодаТемператураВлажностьДавлениеВетер, м/сВероятность осадков
    00:00Ясно и безоблачно+20°C53 %658 мм2.0 м/с2 %
    03:00Практически безоблачно+17°C58 %657 мм2.1 м/с2 %
    06:00Облачно с прояснениями+16°C61 %657 мм2.9 м/с2 %
    09:00Небольшая облачность+23°C41 %660 мм2.9 м/с2 %
    12:00Небольшая облачность+28°C21 %660 мм1.9 м/с2 %
    15:00Небольшая облачность+32°C13 %658 мм4.2 м/с2 %
    18:00Ясно и безоблачно+29°C27 %659 мм6.2 м/с3 %
    21:00Ясно и безоблачно+24°C45 %660 мм1.5 м/с1 %
  • 06марта
    Среда
    +14°
    +30°
    Небольшая облачность
    ВремяПогодаТемператураВлажностьДавлениеВетер, м/сВероятность осадков
    00:00Ясно и безоблачно+21°C32 %660 мм2.7 м/с2 %
    03:00Практически безоблачно+17°C42 %659 мм1.5 м/с2 %
    06:00Ясно и безоблачно+16°C45 %659 мм1.0 м/с2 %
    09:00Ясно и безоблачно+20°C41 %662 мм1.6 м/с2 %
    12:00Ясно и безоблачно+26°C32 %661 мм2.6 м/с2 %
    15:00Небольшая облачность+29°C30 %659 мм6.7 м/с3 %
    18:00Ясно и безоблачно+27°C35 %659 мм2.5 м/с11 %
    21:00Ясно и безоблачно+24°C43 %660 мм2.7 м/с2 %
  • 07марта
    Четверг
    +15°
    +32°
    Ясно и безоблачно
    ВремяПогодаТемператураВлажностьДавлениеВетер, м/сВероятность осадков
    00:00Ясно и безоблачно+20°C50 %659 мм1.0 м/с2 %
    03:00Ясно и безоблачно+17°C59 %657 мм2.0 м/с2 %
    06:00Ясно и безоблачно+15°C74 %657 мм2.6 м/с2 %
    09:00Ясно и безоблачно+24°C47 %660 мм2.0 м/с2 %
    12:00Ясно и безоблачно+31°C26 %660 мм5.6 м/с4 %
    15:00Ясно и безоблачно+31°C23 %658 мм6.9 м/с9 %
    18:00Ясно и безоблачно+27°C35 %658 мм6.3 м/с4 %
    21:00Ясно и безоблачно+24°C50 %660 мм4.0 м/с2 %
  • 08марта
    Пятница
    +16°
    +33°
    Ясно и безоблачно
    ВремяПогодаТемператураВлажностьДавлениеВетер, м/сВероятность осадков
    00:00Ясно и безоблачно+20°C63 %658 мм4.3 м/с2 %
    03:00Ясно и безоблачно+17°C66 %657 мм1.7 м/с2 %
    06:00Ясно и безоблачно+15°C70 %657 мм2.4 м/с2 %
    09:00Ясно и безоблачно+23°C47 %660 мм2.1 м/с2 %
    12:00Ясно и безоблачно+30°C28 %659 мм3.3 м/с2 %
    15:00Ясно и безоблачно+31°C22 %658 мм7.6 м/с4 %
    18:00Ясно и безоблачно+27°C38 %658 мм6.4 м/с2 %
    21:00Ясно и безоблачно+24°C52 %659 мм3.9 м/с2 %
Мы используем cookies
Соглашаюсь